createdAt,value
2022-07-30T00:08:30.247Z,15.6
2022-07-30T00:18:31.161Z,15.5
2022-07-30T00:28:31.418Z,15.3
2022-07-30T00:38:31.727Z,15.1
2022-07-30T00:48:32.725Z,15
2022-07-30T00:58:33.187Z,15
2022-07-30T01:08:34.236Z,14.8
2022-07-30T01:18:34.375Z,14.7
2022-07-30T01:28:34.771Z,14.6
2022-07-30T01:38:35.307Z,14.4
2022-07-30T01:48:35.455Z,14.3
2022-07-30T01:58:35.866Z,14.1
2022-07-30T02:08:36.428Z,14
2022-07-30T02:18:39.544Z,14
2022-07-30T02:28:37.159Z,14.1
2022-07-30T02:38:37.638Z,13.9
2022-07-30T02:48:38.193Z,13.7
2022-07-30T02:58:39.149Z,13.4
2022-07-30T03:08:39.658Z,13.2
2022-07-30T03:18:40.108Z,13.2
2022-07-30T03:48:41.933Z,13
2022-07-30T03:58:42.125Z,13
2022-07-30T04:08:42.819Z,13.1
2022-07-30T04:18:43.339Z,13.1
2022-07-30T04:28:43.436Z,13.1
2022-07-30T04:38:43.655Z,13.1
2022-07-30T04:58:45.008Z,13.4
2022-07-30T05:08:46.062Z,13.5
2022-07-30T05:18:46.506Z,13.4
2022-07-30T05:28:49.556Z,13.6
2022-07-30T05:38:47.755Z,13.7
2022-07-30T05:48:48.605Z,14
2022-07-30T05:58:49.515Z,14.4
2022-07-30T06:08:49.880Z,15
2022-07-30T06:28:51.105Z,16.3
2022-07-30T06:48:52.253Z,16.2
2022-07-30T07:08:53.432Z,16.7
2022-07-30T07:18:53.563Z,16.7
2022-07-30T07:28:53.947Z,16.9
2022-07-30T07:38:54.574Z,17
2022-07-30T07:48:55.546Z,16.9
2022-07-30T07:58:56.702Z,17.2
2022-07-30T08:08:57.465Z,17.4
2022-07-30T08:18:58.345Z,17.5
2022-07-30T08:28:59.397Z,17.9
2022-07-30T08:38:59.611Z,18.3
2022-07-30T08:59:01.566Z,19.3
2022-07-30T09:19:02.152Z,20.4
2022-07-30T09:29:02.690Z,21
2022-07-30T09:49:03.612Z,22.1
2022-07-30T09:59:03.838Z,22.3
2022-07-30T10:09:13.788Z,22.8
2022-07-30T10:19:05.641Z,23
2022-07-30T10:29:06.092Z,23.4
2022-07-30T10:39:06.686Z,24
2022-07-30T10:49:07.150Z,24
2022-07-30T10:59:08.122Z,24.3
2022-07-30T11:09:08.252Z,24.4
2022-07-30T11:19:53.488Z,24.5
2022-07-30T11:39:09.980Z,24.5
2022-07-30T11:49:10.585Z,25
2022-07-30T12:29:12.620Z,25.1
2022-07-30T12:49:21.573Z,25.6
2022-07-30T12:59:14.876Z,25.7
2022-07-30T13:19:15.801Z,26.5
2022-07-30T13:29:16.557Z,26.7
2022-07-30T13:39:17.321Z,26.8
2022-07-30T13:49:17.869Z,26.3
2022-07-30T13:59:17.949Z,26.3
2022-07-30T14:09:18.620Z,26.4
2022-07-30T14:29:19.315Z,27.1
2022-07-30T14:39:19.818Z,27.2
2022-07-30T14:49:26.249Z,26.7
2022-07-30T14:59:26.333Z,26.4
2022-07-30T15:19:27.724Z,26.6
2022-07-30T15:29:27.993Z,26.7
2022-07-30T15:39:28.535Z,26.5
2022-07-30T15:49:29.579Z,26.5
2022-07-30T16:09:30.327Z,26.4
2022-07-30T16:19:30.450Z,26.4
2022-07-30T16:29:31.293Z,26.3
2022-07-30T16:39:31.759Z,25.8
2022-07-30T16:59:33.430Z,25.7
2022-07-30T17:09:36.507Z,25.5
2022-07-30T17:29:38.757Z,25
2022-07-30T17:40:04.493Z,24.8
2022-07-30T17:49:36.634Z,24.6
2022-07-30T17:59:37.007Z,24.4
2022-07-30T18:09:39.586Z,24.4
2022-07-30T18:19:37.517Z,24.1
2022-07-30T18:29:38.341Z,24
2022-07-30T18:39:39.173Z,23.8
2022-07-30T18:49:39.740Z,23.7
2022-07-30T18:59:40.192Z,23.5
2022-07-30T19:09:40.673Z,23.3
2022-07-30T19:19:41.713Z,23.2
2022-07-30T19:29:42.787Z,23
2022-07-30T19:39:58.775Z,22.8
2022-07-30T19:59:45.712Z,22.6
2022-07-30T20:09:44.468Z,22.4
2022-07-30T20:19:47.678Z,22.3
2022-07-30T20:39:45.706Z,22
2022-07-30T20:49:46.103Z,21.9
2022-07-30T20:59:46.233Z,21.8
2022-07-30T21:09:50.037Z,21.7
2022-07-30T21:19:47.088Z,21.8
2022-07-30T21:39:48.112Z,21.6
2022-07-30T21:49:48.557Z,21.4
2022-07-30T21:59:49.333Z,21.3
2022-07-30T22:19:50.132Z,21.1
2022-07-30T22:29:50.991Z,20.8
2022-07-30T22:39:52.288Z,20.6
2022-07-30T22:49:55.014Z,20.5
2022-07-30T22:59:58.821Z,20.5
2022-07-30T23:09:52.608Z,20.5
2022-07-30T23:19:52.984Z,20.3
2022-07-30T23:29:53.607Z,20.2
2022-07-30T23:39:54.191Z,20.2
